Time;durP1;ratioP1;P1;durP2;ratioP2;P2;SDS_P1;SDS_P2;PMS_P1;PMS_P2;Temp;Humidity;BMP_temperature;BMP_pressure;BME280_temperature;BME280_humidity;BME280_pressure;Samples;Min_cycle;Max_cycle;Signal;HPM_P1;HPM_P2
2021/05/27 00:00:09;;;;;;;4.82;2.15;;;;;;;10.21;80.73;100235.38;5040586;28;20057;-70
2021/05/27 00:02:36;;;;;;;3.28;2.47;;;;;;;10.04;82.10;100243.47;5046174;28;20044;-71
2021/05/27 00:05:04;;;;;;;3.58;2.33;;;;;;;10.17;81.30;100239.13;5041030;28;20045;-70
2021/05/27 00:07:32;;;;;;;3.60;2.13;;;;;;;10.11;81.30;100231.63;5028175;28;20088;-70
2021/05/27 00:09:59;;;;;;;5.22;2.58;;;;;;;10.06;81.79;100242.44;5034602;28;20049;-69
2021/05/27 00:12:27;;;;;;;4.30;2.78;;;;;;;9.99;81.54;100233.25;5029780;28;20041;-70
2021/05/27 00:14:54;;;;;;;8.10;2.72;;;;;;;9.95;82.27;100237.03;5042235;28;20069;-70
2021/05/27 00:17:21;;;;;;;4.70;2.70;;;;;;;9.92;81.88;100241.63;5043246;28;20076;-70
2021/05/27 00:19:49;;;;;;;4.20;2.70;;;;;;;9.90;82.58;100242.53;5045509;28;20076;-70
2021/05/27 00:22:16;;;;;;;7.57;3.03;;;;;;;9.93;82.55;100249.41;5049097;28;20067;-70
2021/05/27 00:24:43;;;;;;;3.95;3.00;;;;;;;9.88;82.06;100248.84;5008171;28;20084;-69
2021/05/27 00:27:10;;;;;;;6.22;2.70;;;;;;;9.72;83.37;100250.72;5039346;28;20437;-70
2021/05/27 00:29:39;;;;;;;6.15;2.47;;;;;;;9.84;83.25;100250.81;5043523;28;20057;-71
2021/05/27 00:32:06;;;;;;;5.50;2.55;;;;;;;9.72;83.63;100248.94;5044354;28;20060;-70
2021/05/27 00:34:33;;;;;;;4.30;2.60;;;;;;;9.70;83.21;100255.25;5045983;28;20059;-71
2021/05/27 00:37:00;;;;;;;4.63;2.38;;;;;;;9.65;83.69;100258.16;5031115;28;20520;-71
2021/05/27 00:39:27;;;;;;;7.15;2.55;;;;;;;9.73;83.34;100253.28;5050433;28;20495;-70
2021/05/27 00:41:57;;;;;;;5.93;2.60;;;;;;;9.61;82.80;100256.66;5045269;28;20522;-71
2021/05/27 00:44:29;;;;;;;2.63;2.42;;;;;;;9.61;83.11;100259.28;5046089;28;20045;-71
2021/05/27 00:46:59;;;;;;;6.38;2.80;;;;;;;9.52;83.54;100265.94;5027528;28;20041;-70
2021/05/27 00:49:27;;;;;;;5.35;3.25;;;;;;;9.46;84.22;100257.59;5043982;28;20049;-69
2021/05/27 00:51:54;;;;;;;8.50;2.90;;;;;;;9.32;85.20;100267.13;5025584;28;20041;-70
2021/05/27 00:54:22;;;;;;;3.30;2.92;;;;;;;9.31;84.64;100264.59;5026327;28;20052;-70
2021/05/27 00:56:50;;;;;;;4.10;2.75;;;;;;;9.27;84.97;100270.94;5009073;28;20061;-70
2021/05/27 00:59:18;;;;;;;4.10;3.05;;;;;;;9.33;84.91;100266.19;5007393;28;20053;-70
2021/05/27 01:01:50;;;;;;;3.63;3.08;;;;;;;9.42;84.67;100271.84;5044187;28;20079;-72
2021/05/27 01:04:20;;;;;;;5.63;3.28;;;;;;;9.28;84.57;100267.41;5007725;28;20156;-70
2021/05/27 01:06:47;;;;;;;4.88;3.25;;;;;;;9.29;84.08;100274.34;5043225;28;20152;-72
2021/05/27 01:09:15;;;;;;;4.22;3.05;;;;;;;9.14;85.33;100270.84;5023053;28;20067;-70
2021/05/27 01:11:42;;;;;;;5.88;3.15;;;;;;;9.10;86.24;100270.19;5038346;28;20097;-69
2021/05/27 01:14:12;;;;;;;4.30;3.00;;;;;;;9.10;86.01;100280.69;5049712;28;20706;-69
2021/05/27 01:16:39;;;;;;;4.63;3.30;;;;;;;9.10;85.50;100279.84;5045084;28;20073;-70
2021/05/27 01:19:06;;;;;;;4.28;3.38;;;;;;;8.95;86.03;100281.56;5028429;28;20050;-69
2021/05/27 01:21:34;;;;;;;7.93;3.05;;;;;;;9.08;85.21;100276.44;5026984;28;20055;-70
2021/05/27 01:24:57;;;;;;;6.90;3.47;;;;;;;8.99;85.36;100277.81;5006401;28;20164;-71
2021/05/27 01:27:24;;;;;;;5.35;3.20;;;;;;;9.11;84.81;100279.75;5022141;28;20062;-67
2021/05/27 01:29:53;;;;;;;6.55;3.50;;;;;;;9.07;84.58;100278.22;5027906;28;20064;-71
2021/05/27 01:32:20;;;;;;;4.82;3.25;;;;;;;9.03;85.56;100278.50;5028608;28;20049;-70
2021/05/27 01:34:48;;;;;;;5.38;3.17;;;;;;;8.96;85.52;100275.38;5007944;28;20053;-70
2021/05/27 01:37:15;;;;;;;6.70;3.75;;;;;;;9.04;85.51;100280.19;5026394;28;20149;-69
2021/05/27 01:39:46;;;;;;;5.50;3.25;;;;;;;8.96;85.04;100279.78;5009412;28;20167;-69
2021/05/27 01:42:14;;;;;;;7.20;3.67;;;;;;;8.90;85.66;100285.38;5028048;28;20053;-70
2021/05/27 01:44:42;;;;;;;3.20;2.75;;;;;;;8.85;85.87;100281.25;5022458;28;20115;-70
2021/05/27 01:47:09;;;;;;;3.72;2.65;;;;;;;8.98;86.11;100286.63;5028043;28;20081;-70
2021/05/27 01:49:40;;;;;;;10.35;3.25;;;;;;;8.94;86.15;100287.75;5022727;28;20061;-70
2021/05/27 01:52:07;;;;;;;4.80;3.75;;;;;;;8.99;85.80;100285.69;5027198;28;20147;-71
2021/05/27 01:54:36;;;;;;;4.05;3.17;;;;;;;8.80;86.67;100293.78;5026528;28;20057;-71
2021/05/27 01:57:05;;;;;;;5.18;2.92;;;;;;;8.88;86.50;100290.72;5005984;28;20076;-71
2021/05/27 01:59:32;;;;;;;4.03;3.17;;;;;;;8.82;86.85;100291.06;4989956;28;20640;-71
2021/05/27 02:02:00;;;;;;;5.18;3.30;;;;;;;8.80;86.71;100298.19;5010455;28;20528;-70
2021/05/27 02:04:27;;;;;;;5.68;3.60;;;;;;;8.83;86.74;100291.00;5021731;28;20076;-71
2021/05/27 02:06:54;;;;;;;7.68;3.33;;;;;;;8.87;86.94;100299.50;5026709;28;20125;-69
2021/05/27 02:09:21;;;;;;;4.30;3.22;;;;;;;8.77;87.65;100296.56;5008059;28;20140;-71
2021/05/27 02:11:49;;;;;;;4.63;3.58;;;;;;;8.77;87.22;100295.72;5021244;28;20524;-71
2021/05/27 02:14:19;;;;;;;4.85;3.70;;;;;;;8.70;86.92;100287.38;5022624;28;20054;-71
2021/05/27 02:16:47;;;;;;;4.90;3.88;;;;;;;8.73;87.66;100292.44;5024464;28;20140;-70
2021/05/27 02:19:15;;;;;;;7.03;3.58;;;;;;;8.63;87.27;100294.72;5041426;28;20061;-71
2021/05/27 02:21:42;;;;;;;5.68;4.32;;;;;;;8.64;87.74;100290.31;5041741;28;20572;-71
2021/05/27 02:24:10;;;;;;;7.22;4.22;;;;;;;8.62;87.40;100302.69;5040405;28;20072;-71
2021/05/27 02:26:37;;;;;;;6.05;4.65;;;;;;;8.67;87.68;100302.44;5035504;28;20063;-71
2021/05/27 02:29:04;;;;;;;8.13;4.43;;;;;;;8.66;86.79;100298.13;5045196;28;20044;-71
2021/05/27 02:31:32;;;;;;;5.63;4.88;;;;;;;8.67;86.78;100300.66;5028937;28;20095;-73
2021/05/27 02:33:59;;;;;;;6.18;4.57;;;;;;;8.70;87.12;100297.88;5015610;28;20045;-71
2021/05/27 02:36:27;;;;;;;6.43;4.80;;;;;;;8.76;86.35;100299.28;5047374;28;20067;-72
2021/05/27 02:38:55;;;;;;;5.97;4.80;;;;;;;8.61;87.14;100304.47;5020054;28;20362;-72
2021/05/27 02:41:22;;;;;;;6.63;4.78;;;;;;;8.65;87.36;100299.06;5048137;28;20067;-71
2021/05/27 02:43:50;;;;;;;7.43;4.13;;;;;;;8.75;86.61;100300.22;5031355;28;20047;-71
2021/05/27 02:46:18;;;;;;;6.07;5.47;;;;;;;8.84;86.28;100300.56;5026230;28;20720;-71
2021/05/27 02:48:50;;;;;;;9.30;4.13;;;;;;;8.88;85.70;100309.09;5047209;28;20055;-72
2021/05/27 02:51:17;;;;;;;5.43;4.78;;;;;;;8.88;85.87;100301.22;5045791;28;20138;-72
2021/05/27 02:53:44;;;;;;;6.13;5.07;;;;;;;8.83;85.75;100304.13;5046394;28;20503;-71
2021/05/27 02:56:12;;;;;;;7.22;4.32;;;;;;;9.00;85.66;100304.91;5026067;28;20496;-71
2021/05/27 02:58:39;;;;;;;9.40;4.75;;;;;;;8.92;85.71;100307.16;5047635;28;20051;-72
2021/05/27 03:01:07;;;;;;;6.05;4.65;;;;;;;8.99;85.75;100304.06;5044689;28;20056;-70
2021/05/27 03:03:34;;;;;;;8.13;4.50;;;;;;;9.02;85.09;100317.03;5047336;28;20041;-69
2021/05/27 03:06:01;;;;;;;7.20;4.00;;;;;;;9.03;84.97;100318.72;5032874;28;20052;-71
2021/05/27 03:08:29;;;;;;;8.88;4.47;;;;;;;9.12;84.60;100314.72;5044946;28;20048;-71
2021/05/27 03:10:56;;;;;;;5.35;4.57;;;;;;;9.16;84.64;100310.97;5044765;28;20052;-71
2021/05/27 03:13:24;;;;;;;5.32;4.18;;;;;;;9.15;84.02;100314.56;5044576;28;20061;-70
2021/05/27 03:15:52;;;;;;;8.43;4.70;;;;;;;9.15;85.16;100308.47;5050812;22;20796;-81
2021/05/27 03:18:19;;;;;;;5.65;4.63;;;;;;;9.21;83.52;100310.72;5020176;28;20518;-80
2021/05/27 03:20:47;;;;;;;7.70;4.75;;;;;;;9.34;83.64;100306.44;5038510;28;20088;-80
2021/05/27 03:23:14;;;;;;;5.63;4.60;;;;;;;9.17;83.88;100311.81;5033971;28;20056;-80
2021/05/27 03:25:41;;;;;;;6.18;4.70;;;;;;;9.25;84.22;100315.69;5022158;28;20052;-77
2021/05/27 03:28:09;;;;;;;5.63;3.55;;;;;;;9.40;83.06;100311.31;5021294;28;20359;-80
2021/05/27 03:30:36;;;;;;;6.25;4.28;;;;;;;9.42;83.08;100319.97;5020108;28;20136;-81
2021/05/27 03:33:03;;;;;;;6.05;4.45;;;;;;;9.51;83.09;100311.56;5017860;28;20088;-79
2021/05/27 03:35:31;;;;;;;6.18;3.80;;;;;;;9.70;82.46;100319.16;5010518;28;20249;-79
2021/05/27 03:37:59;;;;;;;6.88;4.57;;;;;;;9.86;81.05;100314.69;5002780;28;20109;-79
2021/05/27 03:40:26;;;;;;;6.43;4.30;;;;;;;9.94;80.71;100319.47;5017797;28;20061;-78
2021/05/27 03:42:56;;;;;;;7.93;4.22;;;;;;;9.92;80.77;100316.09;4986014;28;20138;-79
2021/05/27 03:45:31;;;;;;;5.00;4.07;;;;;;;10.05;80.16;100321.44;4986687;28;20053;-79
2021/05/27 03:47:58;;;;;;;8.13;4.28;;;;;;;10.10;80.38;100324.63;4997464;28;20049;-80
2021/05/27 03:50:28;;;;;;;6.13;4.13;;;;;;;10.10;80.32;100328.09;5001920;28;20101;-79
2021/05/27 03:52:55;;;;;;;6.55;3.83;;;;;;;10.05;79.91;100326.72;5006849;28;20168;-78
2021/05/27 03:55:23;;;;;;;6.28;4.32;;;;;;;10.09;80.36;100329.06;5025939;28;20105;-76
2021/05/27 03:57:54;;;;;;;9.70;4.50;;;;;;;9.94;80.46;100324.72;4999596;28;20158;-79
2021/05/27 04:03:09;;;;;;;5.72;4.30;;;;;;;9.98;80.48;100339.38;5030816;28;20037;-77
2021/05/27 04:08:23;;;;;;;7.20;4.20;;;;;;;10.14;80.13;100336.66;5032981;28;20069;-78
2021/05/27 04:10:52;;;;;;;6.03;4.30;;;;;;;10.15;80.70;100333.09;5032892;28;20089;-77
2021/05/27 04:13:19;;;;;;;4.75;4.28;;;;;;;10.03;80.88;100337.31;5019517;28;20418;-80
2021/05/27 04:15:47;;;;;;;4.97;4.05;;;;;;;10.00;81.79;100345.41;5007563;28;20034;-80
2021/05/27 04:18:19;;;;;;;6.18;3.78;;;;;;;10.08;80.71;100348.38;4962250;28;20141;-79
2021/05/27 04:20:51;;;;;;;7.38;4.00;;;;;;;10.15;80.52;100344.44;4957898;28;20056;-78
2021/05/27 04:23:39;;;;;;;6.13;4.53;;;;;;;9.94;82.36;100345.75;4986586;28;20058;-77
2021/05/27 04:26:08;;;;;;;5.90;4.18;;;;;;;9.92;82.00;100347.66;4988096;28;20109;-78
2021/05/27 04:28:37;;;;;;;6.13;4.15;;;;;;;10.00;81.94;100353.28;4959587;28;20055;-80
2021/05/27 04:31:09;;;;;;;9.23;4.18;;;;;;;10.15;81.76;100357.59;4975281;28;20046;-80
2021/05/27 04:33:42;;;;;;;7.65;4.28;;;;;;;10.25;80.98;100359.69;4971676;28;20056;-81
2021/05/27 04:36:11;;;;;;;4.30;3.90;;;;;;;10.15;80.95;100354.97;4982759;28;20122;-79
2021/05/27 04:38:39;;;;;;;5.55;4.80;;;;;;;10.12;81.90;100360.41;4975682;28;20085;-78
2021/05/27 04:41:07;;;;;;;5.75;4.45;;;;;;;10.27;81.41;100356.03;4988449;28;20109;-77
2021/05/27 04:43:35;;;;;;;9.90;4.65;;;;;;;10.33;81.04;100357.44;5009603;28;20113;-77
2021/05/27 04:46:02;;;;;;;4.88;4.28;;;;;;;10.34;80.99;100345.97;4983808;28;20588;-82
2021/05/27 04:48:30;;;;;;;8.30;4.22;;;;;;;10.33;81.03;100360.91;4974049;28;20042;-80
2021/05/27 04:50:57;;;;;;;6.60;4.60;;;;;;;10.40;81.23;100361.38;4995382;28;20046;-80
2021/05/27 04:53:25;;;;;;;5.50;3.80;;;;;;;10.50;80.64;100361.66;4994930;28;20062;-80
2021/05/27 04:55:54;;;;;;;7.45;4.00;;;;;;;10.58;79.97;100352.34;4952311;28;20062;-80
2021/05/27 04:58:21;;;;;;;8.73;4.25;;;;;;;10.62;79.79;100355.59;4972949;28;20117;-79
2021/05/27 05:00:49;;;;;;;6.15;3.83;;;;;;;10.72;79.89;100355.88;4951226;28;20086;-80
2021/05/27 05:03:16;;;;;;;4.55;3.75;;;;;;;10.83;79.35;100350.75;4963995;28;20061;-77
2021/05/27 05:05:44;;;;;;;6.03;4.20;;;;;;;11.04;78.47;100353.81;4986224;28;20133;-78
2021/05/27 05:08:11;;;;;;;7.40;3.90;;;;;;;11.11;78.35;100352.44;5016897;28;20039;-76
2021/05/27 05:10:40;;;;;;;7.88;4.22;;;;;;;11.05;79.11;100352.84;4958143;28;20585;-79
2021/05/27 05:13:08;;;;;;;5.00;3.70;;;;;;;11.44;77.14;100352.03;4980563;28;20141;-76
2021/05/27 05:15:40;;;;;;;4.65;3.72;;;;;;;11.61;75.96;100354.34;4999914;28;20046;-76
2021/05/27 05:18:12;;;;;;;6.22;3.50;;;;;;;11.59;76.24;100360.69;5039109;28;20061;-77
2021/05/27 05:20:44;;;;;;;7.57;3.78;;;;;;;12.12;74.35;100359.69;5018432;28;20077;-78
2021/05/27 05:23:11;;;;;;;7.05;4.10;;;;;;;13.01;70.99;100352.47;5026466;28;20113;-79
2021/05/27 05:25:40;;;;;;;4.40;3.33;;;;;;;14.20;66.60;100351.38;5024734;28;20050;-77
2021/05/27 05:28:08;;;;;;;3.38;2.92;;;;;;;15.44;61.92;100358.13;5027071;28;20215;-78
2021/05/27 05:30:35;;;;;;;3.85;3.00;;;;;;;16.10;58.94;100359.66;5031546;28;20056;-77
2021/05/27 05:33:03;;;;;;;3.53;2.67;;;;;;;15.53;59.37;100348.53;5034130;28;20046;-78
2021/05/27 05:35:31;;;;;;;6.97;3.47;;;;;;;14.90;61.49;100352.88;5035520;28;20116;-78
2021/05/27 05:37:58;;;;;;;6.07;3.25;;;;;;;14.36;63.95;100357.19;5031875;28;20069;-80
2021/05/27 05:40:28;;;;;;;5.70;3.60;;;;;;;14.32;63.82;100354.84;5010763;28;20117;-78
2021/05/27 05:42:56;;;;;;;4.03;2.67;;;;;;;13.97;64.98;100357.63;5021667;28;20076;-79
2021/05/27 05:45:24;;;;;;;5.35;2.95;;;;;;;13.92;66.10;100355.34;5028845;28;20071;-78
2021/05/27 05:47:56;;;;;;;5.45;3.05;;;;;;;14.07;65.34;100361.25;5021892;28;20152;-81
2021/05/27 05:53:12;;;;;;;7.78;2.70;;;;;;;14.31;64.46;100355.81;5026498;28;20030;-78
2021/05/27 05:55:39;;;;;;;12.52;4.40;;;;;;;14.16;64.79;100364.00;5012496;28;20064;-79
2021/05/27 05:58:07;;;;;;;5.38;2.60;;;;;;;13.85;65.98;100364.69;5008664;28;20153;-80
2021/05/27 06:00:34;;;;;;;7.28;3.95;;;;;;;13.56;67.60;100357.19;5027957;28;20152;-78
2021/05/27 06:03:03;;;;;;;8.27;2.92;;;;;;;13.37;67.63;100367.44;5027225;28;20069;-80
2021/05/27 06:05:31;;;;;;;6.13;3.60;;;;;;;13.32;67.92;100370.44;4991534;28;20145;-80
2021/05/27 06:07:58;;;;;;;3.67;3.15;;;;;;;13.33;68.51;100372.16;5020930;28;20081;-80
2021/05/27 06:10:25;;;;;;;4.82;3.00;;;;;;;13.45;68.17;100366.88;4992565;28;20225;-79
2021/05/27 06:12:56;;;;;;;9.07;3.40;;;;;;;13.57;67.64;100361.50;5014447;28;20078;-79
2021/05/27 06:15:24;;;;;;;8.10;3.42;;;;;;;13.54;67.07;100376.78;5023214;28;20050;-78
2021/05/27 06:17:56;;;;;;;6.35;3.00;;;;;;;13.50;67.68;100376.16;5009420;28;20109;-81
2021/05/27 06:20:25;;;;;;;12.45;5.07;;;;;;;13.83;66.59;100372.78;5026003;28;20057;-78
2021/05/27 06:22:53;;;;;;;4.45;3.55;;;;;;;13.90;66.37;100373.97;4992905;28;20046;-79
2021/05/27 06:25:23;;;;;;;7.15;3.33;;;;;;;14.08;65.15;100384.09;5029915;28;20176;-80
2021/05/27 06:27:51;;;;;;;3.75;3.08;;;;;;;14.04;64.83;100390.59;5027922;28;20136;-79
2021/05/27 06:30:20;;;;;;;17.05;4.35;;;;;;;13.94;64.76;100388.66;5025725;28;20125;-80
2021/05/27 06:32:48;;;;;;;7.28;3.38;;;;;;;13.66;66.45;100392.56;5024835;28;20057;-80
2021/05/27 06:35:15;;;;;;;6.50;3.60;;;;;;;13.50;66.79;100392.00;5022940;28;20045;-80
2021/05/27 06:37:43;;;;;;;6.57;3.40;;;;;;;13.48;66.68;100396.59;5014890;28;20068;-80
2021/05/27 06:40:16;;;;;;;4.07;3.05;;;;;;;13.33;67.94;100395.94;5024055;28;20050;-80
2021/05/27 06:42:43;;;;;;;13.70;3.65;;;;;;;13.36;67.60;100394.84;5019663;28;20049;-80
2021/05/27 06:45:11;;;;;;;11.85;4.80;;;;;;;12.85;69.99;100408.25;5010044;28;20108;-78
2021/05/27 06:47:38;;;;;;;6.85;3.47;;;;;;;13.10;68.90;100408.16;5019534;28;20042;-80
2021/05/27 06:50:12;;;;;;;6.30;3.45;;;;;;;12.85;69.39;100411.72;5022766;28;20045;-78
2021/05/27 06:52:40;;;;;;;16.00;4.80;;;;;;;12.87;70.19;100412.44;5025063;28;20145;-80
2021/05/27 06:55:08;;;;;;;9.10;3.67;;;;;;;12.72;70.47;100424.13;5025984;28;20110;-81
2021/05/27 06:57:35;;;;;;;7.85;4.13;;;;;;;12.67;70.92;100421.81;5022969;28;20073;-78
2021/05/27 07:00:05;;;;;;;7.05;3.70;;;;;;;12.80;70.64;100420.94;5029512;28;20038;-78
2021/05/27 07:02:33;;;;;;;6.95;3.53;;;;;;;12.80;71.05;100423.59;5014373;28;20058;-81
2021/05/27 07:05:00;;;;;;;7.97;3.15;;;;;;;13.01;70.22;100418.53;5038634;28;20365;-77
2021/05/27 07:07:27;;;;;;;5.05;3.08;;;;;;;12.92;70.32;100420.03;5022518;28;20045;-80
2021/05/27 07:09:55;;;;;;;14.07;3.78;;;;;;;13.35;68.20;100415.16;4987663;28;20054;-78
2021/05/27 07:12:22;;;;;;;14.15;3.10;;;;;;;13.59;68.94;100412.47;5005740;28;20045;-80
2021/05/27 07:14:49;;;;;;;7.15;2.80;;;;;;;13.77;66.92;100404.13;5026299;28;20068;-79
2021/05/27 07:17:16;;;;;;;4.50;2.70;;;;;;;13.92;66.13;100410.91;5023285;28;20046;-79
2021/05/27 07:19:44;;;;;;;7.57;2.90;;;;;;;13.94;66.10;100416.91;5021106;28;20054;-77
2021/05/27 07:22:12;;;;;;;5.13;2.63;;;;;;;14.17;64.89;100418.66;5028145;28;20041;-80
2021/05/27 07:24:39;;;;;;;3.92;2.15;;;;;;;14.07;64.89;100416.84;5022473;28;20073;-78
2021/05/27 07:27:06;;;;;;;4.03;2.20;;;;;;;14.17;64.13;100410.69;5015597;28;20140;-79
2021/05/27 07:29:33;;;;;;;4.15;1.88;;;;;;;14.03;65.15;100424.16;5035971;28;20041;-79
2021/05/27 07:32:01;;;;;;;3.72;2.00;;;;;;;13.91;65.75;100428.59;5014178;28;20113;-79
2021/05/27 07:34:28;;;;;;;3.22;1.75;;;;;;;13.35;68.66;100440.75;5021002;28;20133;-78
2021/05/27 07:36:56;;;;;;;3.40;2.50;;;;;;;13.63;68.43;100431.63;5022176;28;20133;-80
2021/05/27 07:39:23;;;;;;;3.42;2.38;;;;;;;13.68;68.61;100435.59;5021712;28;20106;-78
2021/05/27 07:41:50;;;;;;;4.32;2.28;;;;;;;14.14;67.19;100441.88;5017332;28;20049;-79
2021/05/27 07:44:18;;;;;;;3.72;2.00;;;;;;;14.97;64.36;100446.84;5018662;28;20083;-78
2021/05/27 07:46:45;;;;;;;4.30;1.75;;;;;;;15.25;63.28;100442.81;5004024;28;20084;-77
2021/05/27 07:49:12;;;;;;;3.20;1.58;;;;;;;15.76;61.34;100438.66;5028403;28;20060;-78
2021/05/27 07:51:40;;;;;;;4.05;2.05;;;;;;;15.53;61.03;100438.72;5031169;28;20093;-78
2021/05/27 07:54:07;;;;;;;5.47;1.70;;;;;;;15.54;60.65;100437.78;5018496;28;20185;-79
2021/05/27 07:56:34;;;;;;;2.72;1.75;;;;;;;15.94;59.25;100448.59;5022937;28;20516;-80
2021/05/27 07:59:01;;;;;;;3.60;2.00;;;;;;;15.43;60.27;100446.59;5012482;28;20046;-79
2021/05/27 08:01:28;;;;;;;3.10;1.83;;;;;;;14.89;61.65;100447.47;5027093;28;20068;-79
2021/05/27 08:03:56;;;;;;;2.10;1.40;;;;;;;15.32;60.21;100443.16;5023311;28;20054;-78
2021/05/27 08:06:24;;;;;;;4.22;1.65;;;;;;;15.08;61.32;100448.63;5024922;28;20092;-80
2021/05/27 08:08:51;;;;;;;6.63;2.17;;;;;;;14.88;62.62;100445.78;5018259;28;20050;-80
2021/05/27 08:11:18;;;;;;;3.65;2.05;;;;;;;14.66;63.39;100451.94;5021338;28;20061;-81
2021/05/27 08:13:46;;;;;;;7.25;2.42;;;;;;;14.51;63.83;100453.16;5020255;28;20058;-78
2021/05/27 08:16:14;;;;;;;4.50;1.85;;;;;;;14.66;62.62;100453.75;5027552;28;20054;-81
2021/05/27 08:18:41;;;;;;;4.13;1.70;;;;;;;15.16;61.12;100457.66;5022024;28;20041;-79
2021/05/27 08:21:08;;;;;;;4.00;1.77;;;;;;;15.51;59.98;100451.28;5022063;28;20046;-80
2021/05/27 08:23:36;;;;;;;3.42;1.80;;;;;;;15.53;58.42;100453.81;5022336;28;20081;-80
2021/05/27 08:26:03;;;;;;;3.63;1.27;;;;;;;15.67;58.26;100440.31;5015632;28;20058;-79
2021/05/27 08:28:30;;;;;;;8.20;1.65;;;;;;;15.60;58.85;100452.34;5023276;28;20050;-81
2021/05/27 08:30:59;;;;;;;6.75;2.13;;;;;;;15.36;59.32;100450.75;5019617;28;20045;-81
2021/05/27 08:33:26;;;;;;;2.95;1.63;;;;;;;15.10;59.82;100449.38;5017183;28;20117;-80
2021/05/27 08:35:53;;;;;;;2.25;1.63;;;;;;;14.82;60.41;100442.78;5018576;28;20077;-81
2021/05/27 08:38:21;;;;;;;6.75;1.98;;;;;;;14.17;64.35;100457.50;5019278;28;20083;-80
2021/05/27 08:40:48;;;;;;;3.15;1.85;;;;;;;13.53;68.25;100455.28;5019210;28;20057;-79
2021/05/27 08:43:15;;;;;;;4.25;1.92;;;;;;;13.17;72.39;100462.25;5023105;28;20123;-80
2021/05/27 08:45:44;;;;;;;3.10;2.05;;;;;;;13.52;71.73;100464.16;5020568;28;20129;-79
2021/05/27 08:48:12;;;;;;;4.97;2.30;;;;;;;14.10;70.20;100457.16;5019985;28;20054;-80
2021/05/27 08:50:47;;;;;;;5.70;2.03;;;;;;;14.51;67.78;100453.16;5019324;28;20108;-80
2021/05/27 08:53:15;;;;;;;3.10;2.13;;;;;;;14.42;67.42;100459.13;5031512;22;20041;-74
2021/05/27 08:55:43;;;;;;;4.25;1.75;;;;;;;14.28;69.19;100457.53;5015725;28;20203;-73
2021/05/27 08:58:11;;;;;;;4.40;2.22;;;;;;;14.28;68.72;100464.66;5032248;28;20057;-73
2021/05/27 09:00:38;;;;;;;5.95;2.10;;;;;;;14.32;67.37;100458.13;5008948;28;20055;-73
2021/05/27 09:03:09;;;;;;;6.53;1.70;;;;;;;14.60;65.78;100463.03;5002230;28;21072;-73
2021/05/27 09:05:37;;;;;;;7.68;1.73;;;;;;;14.28;66.70;100457.53;5011303;28;20539;-73
2021/05/27 09:08:07;;;;;;;2.05;1.30;;;;;;;14.41;65.32;100460.09;4983703;28;20049;-75
2021/05/27 09:10:46;;;;;;;3.38;1.55;;;;;;;13.89;65.83;100461.41;5037066;28;20049;-74
2021/05/27 09:13:17;;;;;;;8.15;1.13;;;;;;;13.37;67.90;100473.22;5023561;28;20491;-73
2021/05/27 09:15:45;;;;;;;7.50;1.80;;;;;;;13.32;68.47;100468.25;5028392;28;20124;-73
2021/05/27 09:18:12;;;;;;;5.20;1.75;;;;;;;13.18;68.66;100466.59;5022450;28;20046;-74
2021/05/27 09:20:40;;;;;;;6.50;1.40;;;;;;;13.33;68.48;100469.97;5039794;28;20451;-74
2021/05/27 09:23:16;;;;;;;3.25;1.70;;;;;;;13.41;67.96;100466.75;5020252;28;20057;-71
2021/05/27 09:25:46;;;;;;;3.78;1.70;;;;;;;13.32;68.29;100475.34;5006551;28;20151;-74
2021/05/27 09:28:22;;;;;;;2.03;1.45;;;;;;;13.18;68.60;100471.88;5007525;28;20083;-74
2021/05/27 09:30:54;;;;;;;4.45;1.42;;;;;;;13.10;68.92;100483.94;5034404;28;20136;-73
2021/05/27 09:33:37;;;;;;;1.55;1.10;;;;;;;13.75;66.00;100478.34;5038198;28;20136;-73
2021/05/27 09:36:06;;;;;;;5.63;1.85;;;;;;;14.82;65.77;100471.94;5010894;28;20045;-72
2021/05/27 09:38:48;;;;;;;3.20;1.60;;;;;;;15.44;63.06;100473.97;5032277;28;20146;-73
2021/05/27 09:41:25;;;;;;;5.70;1.17;;;;;;;15.36;60.27;100471.13;4976164;28;21149;-66
2021/05/27 09:43:54;;;;;;;5.07;1.33;;;;;;;16.24;57.87;100465.56;4965132;28;20054;-67
2021/05/27 09:46:22;;;;;;;4.85;1.27;;;;;;;16.83;55.93;100472.03;4970073;28;20137;-67
2021/05/27 09:49:09;;;;;;;7.22;1.08;;;;;;;17.06;53.29;100464.69;4953328;28;20129;-68
2021/05/27 09:51:37;;;;;;;5.10;0.90;;;;;;;17.27;52.67;100468.09;4971170;28;20069;-67
2021/05/27 09:54:04;;;;;;;6.07;0.68;;;;;;;17.07;51.92;100464.56;4983302;28;20158;-68
2021/05/27 09:56:41;;;;;;;4.07;1.13;;;;;;;17.44;51.26;100472.75;4969193;28;20134;-67
2021/05/27 09:59:11;;;;;;;2.70;0.68;;;;;;;17.72;48.62;100464.91;4967339;28;20058;-66
2021/05/27 10:02:12;;;;;;;3.65;0.63;;;;;;;17.59;48.25;100469.66;4971321;28;20196;-69
2021/05/27 10:04:57;;;;;;;5.43;1.02;;;;;;;17.44;49.91;100470.09;4969487;28;20054;-68
2021/05/27 10:07:38;;;;;;;0.93;0.60;;;;;;;18.00;46.46;100465.91;4971266;28;20051;-66
2021/05/27 10:10:25;;;;;;;1.92;0.98;;;;;;;18.56;45.82;100457.09;4969902;28;20146;-67
2021/05/27 10:12:53;;;;;;;1.38;0.60;;;;;;;18.74;44.88;100457.19;4972836;28;20051;-68
2021/05/27 10:15:22;;;;;;;3.33;0.75;;;;;;;19.23;43.41;100452.44;4973791;28;20505;-69
2021/05/27 10:17:51;;;;;;;4.35;1.35;;;;;;;18.90;43.91;100452.03;4966458;28;20047;-68
2021/05/27 10:20:21;;;;;;;3.08;1.50;;;;;;;19.51;44.07;100452.38;4973714;28;20484;-70
2021/05/27 10:22:48;;;;;;;3.28;1.08;;;;;;;18.91;44.83;100455.53;4973124;28;20166;-67
2021/05/27 10:25:17;;;;;;;1.90;0.73;;;;;;;18.92;44.83;100451.91;4971854;28;20166;-69
2021/05/27 10:27:47;;;;;;;8.55;1.08;;;;;;;18.89;44.85;100450.38;4980016;28;20059;-68
2021/05/27 10:30:15;;;;;;;3.17;1.20;;;;;;;19.64;43.50;100445.69;4972726;28;20769;-66
2021/05/27 10:32:45;;;;;;;1.88;1.08;;;;;;;20.40;41.55;100442.41;4971769;28;20050;-67
2021/05/27 10:35:13;;;;;;;4.65;1.10;;;;;;;19.78;41.40;100446.13;4953233;28;20539;-69
2021/05/27 10:37:43;;;;;;;2.47;0.52;;;;;;;19.08;43.17;100446.75;4979786;28;20158;-67
2021/05/27 10:40:19;;;;;;;3.85;0.60;;;;;;;18.71;43.90;100452.97;4979205;28;20059;-69
2021/05/27 10:43:19;;;;;;;3.03;0.60;;;;;;;18.30;45.36;100450.72;4970052;28;20046;-67
2021/05/27 10:45:57;;;;;;;6.05;0.85;;;;;;;18.31;45.58;100453.22;4976017;28;20046;-68
2021/05/27 10:48:28;;;;;;;3.80;1.10;;;;;;;18.58;45.47;100455.09;4972197;28;20037;-65
2021/05/27 10:53:34;;;;;;;4.28;0.90;;;;;;;18.75;44.96;100460.69;4973594;28;20089;-66
2021/05/27 10:56:02;;;;;;;1.15;0.50;;;;;;;18.49;43.79;100461.31;4969530;28;20059;-69
2021/05/27 10:58:48;;;;;;;2.38;1.00;;;;;;;17.90;45.64;100465.06;4990931;28;20062;-67
2021/05/27 11:01:17;;;;;;;2.50;0.90;;;;;;;17.80;45.75;100454.44;4986099;28;20054;-67
2021/05/27 11:03:49;;;;;;;2.70;1.20;;;;;;;17.68;45.88;100467.00;4966194;28;20148;-66
2021/05/27 11:06:43;;;;;;;2.45;1.02;;;;;;;17.40;47.94;100476.66;4992946;28;20068;-66
2021/05/27 11:09:10;;;;;;;1.63;0.80;;;;;;;17.56;47.92;100473.47;4941496;28;20092;-66
2021/05/27 11:11:50;;;;;;;1.58;0.80;;;;;;;18.04;48.11;100469.13;4987645;28;20066;-68
2021/05/27 11:14:24;;;;;;;2.60;1.05;;;;;;;18.41;46.42;100463.84;4987065;28;20379;-68
2021/05/27 11:17:04;;;;;;;1.77;0.88;;;;;;;18.63;45.14;100468.81;4974458;28;20047;-67
2021/05/27 11:19:57;;;;;;;1.90;0.73;;;;;;;18.69;45.27;100468.28;4990269;28;20098;-67
2021/05/27 11:25:26;;;;;;;1.55;0.80;;;;;;;18.61;45.56;100476.16;4972064;28;20062;-69
2021/05/27 11:28:14;;;;;;;2.50;0.60;;;;;;;19.10;44.72;100475.97;4974042;28;20065;-69
2021/05/27 11:30:44;;;;;;;5.68;0.88;;;;;;;18.44;44.72;100476.91;4972204;28;20463;-68
2021/05/27 11:33:21;;;;;;;3.50;0.80;;;;;;;17.96;46.92;100473.31;4988727;28;20062;-68
2021/05/27 11:35:55;;;;;;;6.80;1.10;;;;;;;17.84;48.28;100494.94;4989227;28;20081;-67
2021/05/27 11:38:26;;;;;;;3.42;1.13;;;;;;;17.07;55.84;100501.78;4955033;28;20050;-66
2021/05/27 11:40:57;;;;;;;8.30;1.77;;;;;;;16.34;62.46;100489.50;4971721;28;20047;-67
2021/05/27 11:43:28;;;;;;;5.85;1.00;;;;;;;16.19;65.37;100492.50;4969498;28;20516;-67
2021/05/27 11:45:56;;;;;;;3.38;1.50;;;;;;;16.47;62.61;100487.50;4970423;28;20085;-70
2021/05/27 11:48:31;;;;;;;4.80;0.88;;;;;;;16.81;61.93;100480.16;4985737;28;20394;-66
2021/05/27 11:51:07;;;;;;;2.17;0.65;;;;;;;16.68;63.67;100479.50;4956735;28;20423;-67